sensor_id;sensor_type;location;lat;lon;timestamp;P1;durP1;ratioP1;P2;durP2;ratioP2
26598;SDS011;14240;51.064;16.612;2024-03-22T00:00:13;15.55;;;7.95;;
26598;SDS011;14240;51.064;16.612;2024-03-22T00:02:39;16.67;;;8.30;;
26598;SDS011;14240;51.064;16.612;2024-03-22T00:05:05;18.85;;;9.65;;
26598;SDS011;14240;51.064;16.612;2024-03-22T00:07:31;15.50;;;8.52;;
26598;SDS011;14240;51.064;16.612;2024-03-22T00:09:57;18.83;;;9.90;;
26598;SDS011;14240;51.064;16.612;2024-03-22T00:12:22;17.17;;;9.45;;
26598;SDS011;14240;51.064;16.612;2024-03-22T00:14:48;15.70;;;8.27;;
26598;SDS011;14240;51.064;16.612;2024-03-22T00:17:16;21.65;;;9.45;;
26598;SDS011;14240;51.064;16.612;2024-03-22T00:19:42;15.68;;;9.40;;
26598;SDS011;14240;51.064;16.612;2024-03-22T00:22:07;15.45;;;8.55;;
26598;SDS011;14240;51.064;16.612;2024-03-22T00:24:34;13.63;;;7.88;;
26598;SDS011;14240;51.064;16.612;2024-03-22T00:26:59;11.98;;;6.97;;
26598;SDS011;14240;51.064;16.612;2024-03-22T00:29:25;16.33;;;8.02;;
26598;SDS011;14240;51.064;16.612;2024-03-22T00:31:51;14.38;;;8.02;;
26598;SDS011;14240;51.064;16.612;2024-03-22T00:34:17;17.42;;;8.55;;
26598;SDS011;14240;51.064;16.612;2024-03-22T00:36:44;14.18;;;7.90;;
26598;SDS011;14240;51.064;16.612;2024-03-22T00:39:10;14.93;;;8.35;;
26598;SDS011;14240;51.064;16.612;2024-03-22T00:41:37;16.40;;;8.18;;
26598;SDS011;14240;51.064;16.612;2024-03-22T00:44:03;16.50;;;9.38;;
26598;SDS011;14240;51.064;16.612;2024-03-22T00:46:29;16.73;;;7.55;;
26598;SDS011;14240;51.064;16.612;2024-03-22T00:48:55;13.10;;;7.00;;
26598;SDS011;14240;51.064;16.612;2024-03-22T00:51:20;14.27;;;7.97;;
26598;SDS011;14240;51.064;16.612;2024-03-22T00:53:47;14.40;;;6.50;;
26598;SDS011;14240;51.064;16.612;2024-03-22T00:56:12;10.50;;;6.20;;
26598;SDS011;14240;51.064;16.612;2024-03-22T00:58:38;11.25;;;6.15;;
26598;SDS011;14240;51.064;16.612;2024-03-22T01:01:04;11.05;;;6.45;;
26598;SDS011;14240;51.064;16.612;2024-03-22T01:03:29;13.65;;;7.13;;
26598;SDS011;14240;51.064;16.612;2024-03-22T01:05:55;18.05;;;10.77;;
26598;SDS011;14240;51.064;16.612;2024-03-22T01:08:22;31.27;;;17.90;;
26598;SDS011;14240;51.064;16.612;2024-03-22T01:10:48;13.45;;;7.32;;
26598;SDS011;14240;51.064;16.612;2024-03-22T01:13:15;13.00;;;6.57;;
26598;SDS011;14240;51.064;16.612;2024-03-22T01:15:40;14.38;;;7.90;;
26598;SDS011;14240;51.064;16.612;2024-03-22T01:18:06;13.50;;;7.35;;
26598;SDS011;14240;51.064;16.612;2024-03-22T01:20:32;14.63;;;7.63;;
26598;SDS011;14240;51.064;16.612;2024-03-22T01:22:59;12.18;;;7.28;;
26598;SDS011;14240;51.064;16.612;2024-03-22T01:25:25;14.13;;;7.88;;
26598;SDS011;14240;51.064;16.612;2024-03-22T01:27:52;15.63;;;7.70;;
26598;SDS011;14240;51.064;16.612;2024-03-22T01:30:17;11.60;;;7.13;;
26598;SDS011;14240;51.064;16.612;2024-03-22T01:32:43;12.85;;;7.57;;
26598;SDS011;14240;51.064;16.612;2024-03-22T01:35:09;16.58;;;8.85;;
26598;SDS011;14240;51.064;16.612;2024-03-22T01:37:35;14.85;;;9.15;;
26598;SDS011;14240;51.064;16.612;2024-03-22T01:40:00;16.85;;;8.88;;
26598;SDS011;14240;51.064;16.612;2024-03-22T01:42:26;14.60;;;8.80;;
26598;SDS011;14240;51.064;16.612;2024-03-22T01:44:52;15.70;;;9.00;;
26598;SDS011;14240;51.064;16.612;2024-03-22T01:47:18;18.60;;;8.63;;
26598;SDS011;14240;51.064;16.612;2024-03-22T01:49:43;16.25;;;9.23;;
26598;SDS011;14240;51.064;16.612;2024-03-22T01:52:09;17.80;;;9.93;;
26598;SDS011;14240;51.064;16.612;2024-03-22T01:54:35;17.17;;;9.82;;
26598;SDS011;14240;51.064;16.612;2024-03-22T01:57:01;16.60;;;9.73;;
26598;SDS011;14240;51.064;16.612;2024-03-22T01:59:27;17.90;;;9.55;;
26598;SDS011;14240;51.064;16.612;2024-03-22T02:01:54;17.15;;;9.55;;
26598;SDS011;14240;51.064;16.612;2024-03-22T02:04:19;20.85;;;10.40;;
26598;SDS011;14240;51.064;16.612;2024-03-22T02:06:45;19.95;;;10.02;;
26598;SDS011;14240;51.064;16.612;2024-03-22T02:09:11;18.90;;;10.75;;
26598;SDS011;14240;51.064;16.612;2024-03-22T02:11:37;17.15;;;9.75;;
26598;SDS011;14240;51.064;16.612;2024-03-22T02:14:04;18.95;;;10.13;;
26598;SDS011;14240;51.064;16.612;2024-03-22T02:16:30;21.38;;;11.43;;
26598;SDS011;14240;51.064;16.612;2024-03-22T02:18:56;20.92;;;11.23;;
26598;SDS011;14240;51.064;16.612;2024-03-22T02:21:21;23.17;;;11.43;;
26598;SDS011;14240;51.064;16.612;2024-03-22T02:23:47;20.98;;;11.77;;
26598;SDS011;14240;51.064;16.612;2024-03-22T02:26:12;21.80;;;11.32;;
26598;SDS011;14240;51.064;16.612;2024-03-22T02:28:38;21.90;;;11.93;;
26598;SDS011;14240;51.064;16.612;2024-03-22T02:31:04;25.48;;;12.65;;
26598;SDS011;14240;51.064;16.612;2024-03-22T02:33:30;23.52;;;12.80;;
26598;SDS011;14240;51.064;16.612;2024-03-22T02:35:56;24.88;;;12.70;;
26598;SDS011;14240;51.064;16.612;2024-03-22T02:38:22;22.77;;;12.75;;
26598;SDS011;14240;51.064;16.612;2024-03-22T02:40:49;29.08;;;13.70;;
26598;SDS011;14240;51.064;16.612;2024-03-22T02:43:16;24.50;;;12.57;;
26598;SDS011;14240;51.064;16.612;2024-03-22T02:45:48;27.38;;;13.65;;
26598;SDS011;14240;51.064;16.612;2024-03-22T02:48:14;25.58;;;13.55;;
26598;SDS011;14240;51.064;16.612;2024-03-22T02:50:40;27.80;;;13.02;;
26598;SDS011;14240;51.064;16.612;2024-03-22T02:53:06;24.60;;;13.35;;
26598;SDS011;14240;51.064;16.612;2024-03-22T02:55:39;27.65;;;14.02;;
26598;SDS011;14240;51.064;16.612;2024-03-22T02:58:08;27.00;;;13.82;;
26598;SDS011;14240;51.064;16.612;2024-03-22T03:00:36;24.92;;;12.68;;
26598;SDS011;14240;51.064;16.612;2024-03-22T03:03:05;26.92;;;13.75;;
26598;SDS011;14240;51.064;16.612;2024-03-22T03:05:31;27.48;;;13.18;;
26598;SDS011;14240;51.064;16.612;2024-03-22T03:07:57;28.90;;;13.73;;
26598;SDS011;14240;51.064;16.612;2024-03-22T03:10:23;25.98;;;13.40;;
26598;SDS011;14240;51.064;16.612;2024-03-22T03:12:48;27.02;;;14.63;;
26598;SDS011;14240;51.064;16.612;2024-03-22T03:15:15;26.75;;;13.80;;
26598;SDS011;14240;51.064;16.612;2024-03-22T03:17:41;24.30;;;13.27;;
26598;SDS011;14240;51.064;16.612;2024-03-22T03:20:06;24.98;;;13.25;;
26598;SDS011;14240;51.064;16.612;2024-03-22T03:22:33;23.52;;;12.50;;
26598;SDS011;14240;51.064;16.612;2024-03-22T03:25:00;28.52;;;13.70;;
26598;SDS011;14240;51.064;16.612;2024-03-22T03:27:26;24.77;;;13.30;;
26598;SDS011;14240;51.064;16.612;2024-03-22T03:29:51;25.08;;;13.60;;
26598;SDS011;14240;51.064;16.612;2024-03-22T03:32:17;26.15;;;13.73;;
26598;SDS011;14240;51.064;16.612;2024-03-22T03:34:43;28.63;;;13.60;;
26598;SDS011;14240;51.064;16.612;2024-03-22T03:37:09;28.17;;;15.10;;
26598;SDS011;14240;51.064;16.612;2024-03-22T03:39:34;26.98;;;13.88;;
26598;SDS011;14240;51.064;16.612;2024-03-22T03:42:00;27.95;;;13.93;;
26598;SDS011;14240;51.064;16.612;2024-03-22T03:44:25;26.40;;;12.93;;
26598;SDS011;14240;51.064;16.612;2024-03-22T03:46:51;25.63;;;13.48;;
26598;SDS011;14240;51.064;16.612;2024-03-22T03:49:17;23.90;;;12.23;;
26598;SDS011;14240;51.064;16.612;2024-03-22T03:51:43;26.52;;;13.98;;
26598;SDS011;14240;51.064;16.612;2024-03-22T03:54:08;23.65;;;13.00;;
26598;SDS011;14240;51.064;16.612;2024-03-22T03:56:34;26.42;;;13.60;;
26598;SDS011;14240;51.064;16.612;2024-03-22T03:59:00;30.33;;;14.63;;
26598;SDS011;14240;51.064;16.612;2024-03-22T04:01:25;30.08;;;14.48;;
26598;SDS011;14240;51.064;16.612;2024-03-22T04:03:51;24.67;;;13.00;;
26598;SDS011;14240;51.064;16.612;2024-03-22T04:06:16;27.30;;;14.25;;
26598;SDS011;14240;51.064;16.612;2024-03-22T04:08:42;26.58;;;12.82;;
26598;SDS011;14240;51.064;16.612;2024-03-22T04:11:09;28.85;;;14.55;;
26598;SDS011;14240;51.064;16.612;2024-03-22T04:13:35;28.98;;;14.20;;
26598;SDS011;14240;51.064;16.612;2024-03-22T04:16:00;30.77;;;13.88;;
26598;SDS011;14240;51.064;16.612;2024-03-22T04:18:26;30.60;;;15.25;;
26598;SDS011;14240;51.064;16.612;2024-03-22T04:20:55;25.92;;;14.63;;
26598;SDS011;14240;51.064;16.612;2024-03-22T04:23:22;31.10;;;14.52;;
26598;SDS011;14240;51.064;16.612;2024-03-22T04:25:55;30.83;;;14.75;;
26598;SDS011;14240;51.064;16.612;2024-03-22T04:28:24;33.30;;;15.77;;
26598;SDS011;14240;51.064;16.612;2024-03-22T04:30:57;28.13;;;14.45;;
26598;SDS011;14240;51.064;16.612;2024-03-22T04:33:25;29.77;;;14.40;;
26598;SDS011;14240;51.064;16.612;2024-03-22T04:35:51;33.88;;;14.95;;
26598;SDS011;14240;51.064;16.612;2024-03-22T04:38:17;32.05;;;15.35;;
26598;SDS011;14240;51.064;16.612;2024-03-22T04:40:43;37.53;;;15.40;;
26598;SDS011;14240;51.064;16.612;2024-03-22T04:43:08;28.50;;;14.60;;
26598;SDS011;14240;51.064;16.612;2024-03-22T04:45:34;29.30;;;15.35;;
26598;SDS011;14240;51.064;16.612;2024-03-22T04:48:03;28.25;;;15.07;;
26598;SDS011;14240;51.064;16.612;2024-03-22T04:50:30;30.13;;;15.38;;
26598;SDS011;14240;51.064;16.612;2024-03-22T04:52:56;31.08;;;14.60;;
26598;SDS011;14240;51.064;16.612;2024-03-22T04:55:22;28.92;;;14.57;;
26598;SDS011;14240;51.064;16.612;2024-03-22T04:57:48;33.35;;;16.30;;
26598;SDS011;14240;51.064;16.612;2024-03-22T05:00:14;34.58;;;15.65;;
26598;SDS011;14240;51.064;16.612;2024-03-22T05:02:40;35.63;;;16.98;;
26598;SDS011;14240;51.064;16.612;2024-03-22T05:05:06;35.15;;;14.45;;
26598;SDS011;14240;51.064;16.612;2024-03-22T05:07:33;35.33;;;16.88;;
26598;SDS011;14240;51.064;16.612;2024-03-22T05:09:58;31.33;;;14.88;;
26598;SDS011;14240;51.064;16.612;2024-03-22T05:12:24;34.47;;;15.95;;
26598;SDS011;14240;51.064;16.612;2024-03-22T05:14:50;36.88;;;16.65;;
26598;SDS011;14240;51.064;16.612;2024-03-22T05:17:15;31.30;;;14.65;;
26598;SDS011;14240;51.064;16.612;2024-03-22T05:19:41;31.95;;;14.23;;
26598;SDS011;14240;51.064;16.612;2024-03-22T05:22:07;32.90;;;14.80;;
26598;SDS011;14240;51.064;16.612;2024-03-22T05:24:32;34.85;;;13.98;;
26598;SDS011;14240;51.064;16.612;2024-03-22T05:26:58;26.02;;;12.50;;
26598;SDS011;14240;51.064;16.612;2024-03-22T05:29:25;30.38;;;13.18;;
26598;SDS011;14240;51.064;16.612;2024-03-22T05:31:50;30.35;;;14.13;;
26598;SDS011;14240;51.064;16.612;2024-03-22T05:34:17;22.73;;;12.85;;
26598;SDS011;14240;51.064;16.612;2024-03-22T05:36:44;28.60;;;12.98;;
26598;SDS011;14240;51.064;16.612;2024-03-22T05:39:10;29.02;;;13.73;;
26598;SDS011;14240;51.064;16.612;2024-03-22T05:41:36;25.98;;;12.70;;
26598;SDS011;14240;51.064;16.612;2024-03-22T05:44:02;32.40;;;14.52;;
26598;SDS011;14240;51.064;16.612;2024-03-22T05:46:29;33.45;;;14.63;;
26598;SDS011;14240;51.064;16.612;2024-03-22T05:48:55;34.42;;;14.75;;
26598;SDS011;14240;51.064;16.612;2024-03-22T05:51:22;31.27;;;14.53;;
26598;SDS011;14240;51.064;16.612;2024-03-22T05:53:47;26.05;;;13.20;;
26598;SDS011;14240;51.064;16.612;2024-03-22T05:56:13;31.45;;;14.23;;
26598;SDS011;14240;51.064;16.612;2024-03-22T05:58:39;34.85;;;15.80;;
26598;SDS011;14240;51.064;16.612;2024-03-22T06:01:05;32.25;;;14.93;;
26598;SDS011;14240;51.064;16.612;2024-03-22T06:03:31;32.72;;;14.73;;
26598;SDS011;14240;51.064;16.612;2024-03-22T06:05:58;37.45;;;14.93;;
26598;SDS011;14240;51.064;16.612;2024-03-22T06:08:25;37.22;;;15.50;;
26598;SDS011;14240;51.064;16.612;2024-03-22T06:10:56;30.77;;;13.65;;
26598;SDS011;14240;51.064;16.612;2024-03-22T06:13:22;35.72;;;15.30;;
26598;SDS011;14240;51.064;16.612;2024-03-22T06:15:48;32.55;;;14.85;;
26598;SDS011;14240;51.064;16.612;2024-03-22T06:18:14;31.15;;;13.70;;
26598;SDS011;14240;51.064;16.612;2024-03-22T06:20:40;28.65;;;13.90;;
26598;SDS011;14240;51.064;16.612;2024-03-22T06:23:09;29.92;;;14.95;;
26598;SDS011;14240;51.064;16.612;2024-03-22T06:25:35;33.55;;;14.25;;
26598;SDS011;14240;51.064;16.612;2024-03-22T06:28:01;29.98;;;13.80;;
26598;SDS011;14240;51.064;16.612;2024-03-22T06:30:27;33.10;;;15.27;;
26598;SDS011;14240;51.064;16.612;2024-03-22T06:32:53;30.27;;;14.95;;
26598;SDS011;14240;51.064;16.612;2024-03-22T06:35:19;34.95;;;16.75;;
26598;SDS011;14240;51.064;16.612;2024-03-22T06:37:45;30.27;;;14.60;;
26598;SDS011;14240;51.064;16.612;2024-03-22T06:40:11;29.85;;;14.07;;
26598;SDS011;14240;51.064;16.612;2024-03-22T06:42:37;30.90;;;15.07;;
26598;SDS011;14240;51.064;16.612;2024-03-22T06:45:03;32.33;;;15.02;;
26598;SDS011;14240;51.064;16.612;2024-03-22T06:47:29;31.20;;;14.23;;
26598;SDS011;14240;51.064;16.612;2024-03-22T06:49:55;33.05;;;14.68;;
26598;SDS011;14240;51.064;16.612;2024-03-22T06:52:20;35.58;;;15.38;;
26598;SDS011;14240;51.064;16.612;2024-03-22T06:54:46;33.83;;;15.07;;
26598;SDS011;14240;51.064;16.612;2024-03-22T06:57:12;31.17;;;13.85;;
26598;SDS011;14240;51.064;16.612;2024-03-22T06:59:37;36.90;;;16.98;;
26598;SDS011;14240;51.064;16.612;2024-03-22T07:02:03;36.85;;;17.48;;
26598;SDS011;14240;51.064;16.612;2024-03-22T07:04:29;29.20;;;14.77;;
26598;SDS011;14240;51.064;16.612;2024-03-22T07:06:55;36.45;;;15.75;;
26598;SDS011;14240;51.064;16.612;2024-03-22T07:09:21;31.23;;;14.75;;
26598;SDS011;14240;51.064;16.612;2024-03-22T07:11:46;29.73;;;14.07;;
26598;SDS011;14240;51.064;16.612;2024-03-22T07:14:12;32.50;;;15.82;;
26598;SDS011;14240;51.064;16.612;2024-03-22T07:16:38;31.38;;;15.00;;
26598;SDS011;14240;51.064;16.612;2024-03-22T07:19:04;32.00;;;14.63;;
26598;SDS011;14240;51.064;16.612;2024-03-22T07:21:30;32.15;;;15.18;;
26598;SDS011;14240;51.064;16.612;2024-03-22T07:23:56;35.05;;;15.93;;
26598;SDS011;14240;51.064;16.612;2024-03-22T07:26:22;33.85;;;15.48;;
26598;SDS011;14240;51.064;16.612;2024-03-22T07:28:47;36.10;;;15.45;;
26598;SDS011;14240;51.064;16.612;2024-03-22T07:31:13;33.05;;;15.82;;
26598;SDS011;14240;51.064;16.612;2024-03-22T07:33:39;33.88;;;14.05;;
26598;SDS011;14240;51.064;16.612;2024-03-22T07:36:05;30.60;;;15.18;;
26598;SDS011;14240;51.064;16.612;2024-03-22T07:38:31;26.95;;;13.48;;
26598;SDS011;14240;51.064;16.612;2024-03-22T07:40:57;26.17;;;13.40;;
26598;SDS011;14240;51.064;16.612;2024-03-22T07:43:23;28.38;;;14.43;;
26598;SDS011;14240;51.064;16.612;2024-03-22T07:45:49;24.77;;;12.90;;
26598;SDS011;14240;51.064;16.612;2024-03-22T07:48:14;24.55;;;13.00;;
26598;SDS011;14240;51.064;16.612;2024-03-22T07:50:40;26.38;;;13.18;;
26598;SDS011;14240;51.064;16.612;2024-03-22T07:53:06;26.95;;;12.80;;
26598;SDS011;14240;51.064;16.612;2024-03-22T07:55:32;23.92;;;13.00;;
26598;SDS011;14240;51.064;16.612;2024-03-22T07:57:58;29.95;;;14.05;;
26598;SDS011;14240;51.064;16.612;2024-03-22T08:00:24;25.15;;;13.68;;
26598;SDS011;14240;51.064;16.612;2024-03-22T08:02:52;28.40;;;14.88;;
26598;SDS011;14240;51.064;16.612;2024-03-22T08:05:18;25.48;;;13.82;;
26598;SDS011;14240;51.064;16.612;2024-03-22T08:07:44;25.83;;;13.63;;
26598;SDS011;14240;51.064;16.612;2024-03-22T08:10:10;21.48;;;12.90;;
26598;SDS011;14240;51.064;16.612;2024-03-22T08:12:36;29.70;;;12.80;;
26598;SDS011;14240;51.064;16.612;2024-03-22T08:15:02;22.45;;;11.38;;
26598;SDS011;14240;51.064;16.612;2024-03-22T08:17:27;23.55;;;12.60;;
26598;SDS011;14240;51.064;16.612;2024-03-22T08:19:53;23.35;;;11.40;;
26598;SDS011;14240;51.064;16.612;2024-03-22T08:22:19;21.60;;;12.20;;
26598;SDS011;14240;51.064;16.612;2024-03-22T08:24:45;19.95;;;11.20;;
26598;SDS011;14240;51.064;16.612;2024-03-22T08:27:11;22.90;;;12.82;;
26598;SDS011;14240;51.064;16.612;2024-03-22T08:29:37;22.73;;;13.43;;
26598;SDS011;14240;51.064;16.612;2024-03-22T08:32:03;23.40;;;11.85;;
26598;SDS011;14240;51.064;16.612;2024-03-22T08:34:32;21.85;;;11.68;;
26598;SDS011;14240;51.064;16.612;2024-03-22T08:36:58;22.00;;;12.13;;
26598;SDS011;14240;51.064;16.612;2024-03-22T08:39:24;23.45;;;12.65;;
26598;SDS011;14240;51.064;16.612;2024-03-22T08:41:50;23.92;;;13.13;;
26598;SDS011;14240;51.064;16.612;2024-03-22T08:44:16;21.48;;;11.48;;
26598;SDS011;14240;51.064;16.612;2024-03-22T08:46:43;22.35;;;11.98;;
26598;SDS011;14240;51.064;16.612;2024-03-22T08:49:08;22.60;;;11.95;;
26598;SDS011;14240;51.064;16.612;2024-03-22T08:51:34;23.08;;;13.00;;
26598;SDS011;14240;51.064;16.612;2024-03-22T08:53:59;22.05;;;12.38;;
26598;SDS011;14240;51.064;16.612;2024-03-22T08:56:26;23.45;;;12.60;;
26598;SDS011;14240;51.064;16.612;2024-03-22T08:58:52;19.45;;;11.43;;
26598;SDS011;14240;51.064;16.612;2024-03-22T09:01:17;22.08;;;12.40;;
26598;SDS011;14240;51.064;16.612;2024-03-22T09:03:43;20.90;;;11.80;;
26598;SDS011;14240;51.064;16.612;2024-03-22T09:06:12;24.48;;;12.75;;
26598;SDS011;14240;51.064;16.612;2024-03-22T09:08:38;20.38;;;11.40;;
26598;SDS011;14240;51.064;16.612;2024-03-22T09:11:03;21.95;;;11.90;;
26598;SDS011;14240;51.064;16.612;2024-03-22T09:13:29;23.48;;;13.02;;
26598;SDS011;14240;51.064;16.612;2024-03-22T09:15:56;22.40;;;11.98;;
26598;SDS011;14240;51.064;16.612;2024-03-22T09:18:25;22.30;;;11.55;;
26598;SDS011;14240;51.064;16.612;2024-03-22T09:20:54;41.20;;;21.05;;
26598;SDS011;14240;51.064;16.612;2024-03-22T09:23:21;25.48;;;13.35;;
26598;SDS011;14240;51.064;16.612;2024-03-22T09:25:47;23.90;;;12.52;;
26598;SDS011;14240;51.064;16.612;2024-03-22T09:28:13;21.95;;;13.10;;
26598;SDS011;14240;51.064;16.612;2024-03-22T09:30:41;32.75;;;16.95;;
26598;SDS011;14240;51.064;16.612;2024-03-22T09:33:08;25.25;;;13.05;;
26598;SDS011;14240;51.064;16.612;2024-03-22T09:35:34;41.75;;;20.42;;
26598;SDS011;14240;51.064;16.612;2024-03-22T09:38:00;54.13;;;26.65;;
26598;SDS011;14240;51.064;16.612;2024-03-22T09:40:27;26.13;;;13.23;;
26598;SDS011;14240;51.064;16.612;2024-03-22T09:42:53;24.10;;;13.10;;
26598;SDS011;14240;51.064;16.612;2024-03-22T09:47:48;29.60;;;14.13;;
26598;SDS011;14240;51.064;16.612;2024-03-22T09:50:15;43.70;;;21.17;;
26598;SDS011;14240;51.064;16.612;2024-03-22T09:52:41;59.25;;;28.90;;
26598;SDS011;14240;51.064;16.612;2024-03-22T09:55:08;39.20;;;22.20;;
26598;SDS011;14240;51.064;16.612;2024-03-22T09:57:35;45.50;;;25.80;;
26598;SDS011;14240;51.064;16.612;2024-03-22T10:00:06;24.95;;;13.07;;
26598;SDS011;14240;51.064;16.612;2024-03-22T10:02:33;27.40;;;17.52;;
26598;SDS011;14240;51.064;16.612;2024-03-22T10:04:59;28.85;;;15.60;;
26598;SDS011;14240;51.064;16.612;2024-03-22T10:07:27;23.05;;;13.25;;
26598;SDS011;14240;51.064;16.612;2024-03-22T10:09:53;21.42;;;11.52;;
26598;SDS011;14240;51.064;16.612;2024-03-22T10:12:22;29.20;;;15.15;;
26598;SDS011;14240;51.064;16.612;2024-03-22T10:14:48;29.42;;;13.50;;
26598;SDS011;14240;51.064;16.612;2024-03-22T10:17:13;33.30;;;15.88;;
26598;SDS011;14240;51.064;16.612;2024-03-22T10:19:40;20.42;;;11.85;;
26598;SDS011;14240;51.064;16.612;2024-03-22T10:22:06;22.55;;;12.18;;
26598;SDS011;14240;51.064;16.612;2024-03-22T10:24:31;20.40;;;13.25;;
26598;SDS011;14240;51.064;16.612;2024-03-22T10:27:00;22.90;;;12.93;;
26598;SDS011;14240;51.064;16.612;2024-03-22T10:29:26;34.80;;;16.88;;
26598;SDS011;14240;51.064;16.612;2024-03-22T10:31:53;21.33;;;12.35;;
26598;SDS011;14240;51.064;16.612;2024-03-22T10:34:24;26.75;;;13.02;;
26598;SDS011;14240;51.064;16.612;2024-03-22T10:36:50;20.85;;;12.70;;
26598;SDS011;14240;51.064;16.612;2024-03-22T10:39:16;22.50;;;12.38;;
26598;SDS011;14240;51.064;16.612;2024-03-22T10:41:46;22.95;;;12.55;;
26598;SDS011;14240;51.064;16.612;2024-03-22T10:44:13;24.27;;;13.05;;
26598;SDS011;14240;51.064;16.612;2024-03-22T10:46:42;32.67;;;14.40;;
26598;SDS011;14240;51.064;16.612;2024-03-22T10:49:17;27.42;;;14.55;;
26598;SDS011;14240;51.064;16.612;2024-03-22T10:51:45;21.50;;;12.88;;
26598;SDS011;14240;51.064;16.612;2024-03-22T10:54:19;23.83;;;12.30;;
26598;SDS011;14240;51.064;16.612;2024-03-22T10:56:51;29.50;;;11.77;;
26598;SDS011;14240;51.064;16.612;2024-03-22T10:59:20;22.80;;;11.50;;
26598;SDS011;14240;51.064;16.612;2024-03-22T11:01:47;27.33;;;11.75;;
26598;SDS011;14240;51.064;16.612;2024-03-22T11:04:15;24.23;;;12.55;;
26598;SDS011;14240;51.064;16.612;2024-03-22T11:06:50;23.05;;;12.07;;
26598;SDS011;14240;51.064;16.612;2024-03-22T11:09:22;20.27;;;10.98;;
26598;SDS011;14240;51.064;16.612;2024-03-22T11:11:48;17.00;;;8.68;;
26598;SDS011;14240;51.064;16.612;2024-03-22T11:14:17;20.00;;;11.15;;
26598;SDS011;14240;51.064;16.612;2024-03-22T11:16:46;17.42;;;9.63;;
26598;SDS011;14240;51.064;16.612;2024-03-22T11:19:12;17.30;;;9.55;;
26598;SDS011;14240;51.064;16.612;2024-03-22T11:21:38;17.73;;;10.27;;
26598;SDS011;14240;51.064;16.612;2024-03-22T11:24:04;17.52;;;9.52;;
26598;SDS011;14240;51.064;16.612;2024-03-22T11:26:31;14.25;;;7.75;;
26598;SDS011;14240;51.064;16.612;2024-03-22T11:28:57;17.45;;;8.48;;
26598;SDS011;14240;51.064;16.612;2024-03-22T11:31:23;11.98;;;6.35;;
26598;SDS011;14240;51.064;16.612;2024-03-22T11:33:56;14.70;;;7.72;;
26598;SDS011;14240;51.064;16.612;2024-03-22T11:36:22;11.30;;;6.40;;
26598;SDS011;14240;51.064;16.612;2024-03-22T11:38:48;9.80;;;5.93;;
26598;SDS011;14240;51.064;16.612;2024-03-22T11:41:18;18.23;;;8.10;;
26598;SDS011;14240;51.064;16.612;2024-03-22T11:43:51;10.23;;;4.70;;
26598;SDS011;14240;51.064;16.612;2024-03-22T11:46:17;10.67;;;6.03;;
26598;SDS011;14240;51.064;16.612;2024-03-22T11:48:44;8.50;;;4.83;;
26598;SDS011;14240;51.064;16.612;2024-03-22T11:51:10;20.40;;;5.88;;
26598;SDS011;14240;51.064;16.612;2024-03-22T11:53:36;6.63;;;4.13;;
26598;SDS011;14240;51.064;16.612;2024-03-22T11:56:03;7.50;;;5.07;;
26598;SDS011;14240;51.064;16.612;2024-03-22T11:58:29;7.47;;;4.45;;
26598;SDS011;14240;51.064;16.612;2024-03-22T12:00:56;9.63;;;5.35;;
26598;SDS011;14240;51.064;16.612;2024-03-22T12:03:22;10.00;;;4.80;;
26598;SDS011;14240;51.064;16.612;2024-03-22T12:05:48;12.82;;;6.32;;
26598;SDS011;14240;51.064;16.612;2024-03-22T12:08:16;9.18;;;5.20;;
26598;SDS011;14240;51.064;16.612;2024-03-22T12:10:43;14.43;;;6.80;;
26598;SDS011;14240;51.064;16.612;2024-03-22T12:13:09;9.40;;;5.65;;
26598;SDS011;14240;51.064;16.612;2024-03-22T12:15:35;11.85;;;5.60;;
26598;SDS011;14240;51.064;16.612;2024-03-22T12:18:01;28.92;;;7.20;;
26598;SDS011;14240;51.064;16.612;2024-03-22T12:20:27;13.20;;;6.20;;
26598;SDS011;14240;51.064;16.612;2024-03-22T12:22:53;8.73;;;4.75;;
26598;SDS011;14240;51.064;16.612;2024-03-22T12:25:18;13.57;;;5.45;;
26598;SDS011;14240;51.064;16.612;2024-03-22T12:27:46;18.95;;;9.95;;
26598;SDS011;14240;51.064;16.612;2024-03-22T12:30:12;21.27;;;8.70;;
26598;SDS011;14240;51.064;16.612;2024-03-22T12:32:37;9.20;;;5.05;;
26598;SDS011;14240;51.064;16.612;2024-03-22T12:35:03;22.13;;;8.30;;
26598;SDS011;14240;51.064;16.612;2024-03-22T12:37:29;42.75;;;15.63;;
26598;SDS011;14240;51.064;16.612;2024-03-22T12:39:55;18.05;;;8.20;;
26598;SDS011;14240;51.064;16.612;2024-03-22T12:42:20;18.52;;;8.43;;
26598;SDS011;14240;51.064;16.612;2024-03-22T12:44:46;14.25;;;6.32;;
26598;SDS011;14240;51.064;16.612;2024-03-22T12:47:12;16.17;;;6.05;;
26598;SDS011;14240;51.064;16.612;2024-03-22T12:49:38;12.18;;;6.60;;
26598;SDS011;14240;51.064;16.612;2024-03-22T12:52:03;15.32;;;6.13;;
26598;SDS011;14240;51.064;16.612;2024-03-22T12:54:29;9.35;;;4.63;;
26598;SDS011;14240;51.064;16.612;2024-03-22T12:56:55;14.10;;;6.38;;
26598;SDS011;14240;51.064;16.612;2024-03-22T12:59:21;12.80;;;5.85;;
26598;SDS011;14240;51.064;16.612;2024-03-22T13:01:46;15.48;;;6.40;;
26598;SDS011;14240;51.064;16.612;2024-03-22T13:04:12;13.13;;;6.78;;
26598;SDS011;14240;51.064;16.612;2024-03-22T13:06:38;10.45;;;6.20;;
26598;SDS011;14240;51.064;16.612;2024-03-22T13:09:03;12.55;;;6.78;;
26598;SDS011;14240;51.064;16.612;2024-03-22T13:11:30;16.50;;;7.38;;
26598;SDS011;14240;51.064;16.612;2024-03-22T13:13:56;15.98;;;8.23;;
26598;SDS011;14240;51.064;16.612;2024-03-22T13:16:22;13.25;;;7.00;;
26598;SDS011;14240;51.064;16.612;2024-03-22T13:18:48;13.48;;;6.90;;
26598;SDS011;14240;51.064;16.612;2024-03-22T13:21:14;17.48;;;7.82;;
26598;SDS011;14240;51.064;16.612;2024-03-22T13:23:40;13.20;;;7.55;;
26598;SDS011;14240;51.064;16.612;2024-03-22T13:26:05;14.68;;;6.90;;
26598;SDS011;14240;51.064;16.612;2024-03-22T13:28:31;13.57;;;7.53;;
26598;SDS011;14240;51.064;16.612;2024-03-22T13:31:04;15.20;;;8.18;;
26598;SDS011;14240;51.064;16.612;2024-03-22T13:33:33;17.33;;;8.13;;
26598;SDS011;14240;51.064;16.612;2024-03-22T13:36:00;14.35;;;7.72;;
26598;SDS011;14240;51.064;16.612;2024-03-22T13:38:26;14.18;;;7.32;;
26598;SDS011;14240;51.064;16.612;2024-03-22T13:40:56;15.48;;;8.98;;
26598;SDS011;14240;51.064;16.612;2024-03-22T13:43:23;15.98;;;7.63;;
26598;SDS011;14240;51.064;16.612;2024-03-22T13:45:51;13.70;;;7.13;;
26598;SDS011;14240;51.064;16.612;2024-03-22T13:48:23;14.00;;;7.50;;
26598;SDS011;14240;51.064;16.612;2024-03-22T13:50:50;57.10;;;37.13;;
26598;SDS011;14240;51.064;16.612;2024-03-22T13:53:16;30.73;;;18.17;;
26598;SDS011;14240;51.064;16.612;2024-03-22T13:55:42;22.20;;;12.02;;
26598;SDS011;14240;51.064;16.612;2024-03-22T13:58:08;33.15;;;17.15;;
26598;SDS011;14240;51.064;16.612;2024-03-22T14:00:34;32.08;;;20.60;;
26598;SDS011;14240;51.064;16.612;2024-03-22T14:03:00;20.35;;;11.55;;
26598;SDS011;14240;51.064;16.612;2024-03-22T14:05:26;29.98;;;17.20;;
26598;SDS011;14240;51.064;16.612;2024-03-22T14:07:52;20.15;;;12.80;;
26598;SDS011;14240;51.064;16.612;2024-03-22T14:10:18;20.55;;;10.48;;